Time,TemperatureF,DewpointF,PressureIn,WindDirection,WindDirectionDegrees,WindSpeedMPH,WindSpeedGustMPH,Humidity,HourlyPrecipIn,Conditions,Clouds,dailyrainin,SoftwareType,DateUTC
2013-08-15 00:01:00,55.8,42.1,30.25,SSE,158,1.0,2.0,60,0.00,,,0.00,meteohub,2013-08-15 04:01:00,
2013-08-15 00:06:00,55.6,41.9,30.25,South,180,0.0,2.0,60,0.00,,,0.00,meteohub,2013-08-15 04:06:00,
2013-08-15 00:11:00,55.6,41.9,30.25,SSE,158,0.0,3.0,60,0.00,,,0.00,meteohub,2013-08-15 04:11:00,
2013-08-15 00:16:00,55.4,42.3,30.25,SSE,158,0.0,3.0,61,0.00,,,0.00,meteohub,2013-08-15 04:16:00,
2013-08-15 00:21:00,55.2,42.1,30.25,SSW,202,0.0,3.0,61,0.00,,,0.00,meteohub,2013-08-15 04:21:00,
2013-08-15 00:26:00,55.0,42.3,30.25,SSE,158,1.0,3.0,62,0.00,,,0.00,meteohub,2013-08-15 04:26:00,
2013-08-15 00:31:00,55.2,42.1,30.25,SSW,202,0.0,3.0,61,0.00,,,0.00,meteohub,2013-08-15 04:31:00,
2013-08-15 00:36:00,55.0,42.3,30.25,SSW,202,0.0,3.0,62,0.00,,,0.00,meteohub,2013-08-15 04:36:00,
2013-08-15 00:41:00,55.0,42.3,30.25,SSE,158,2.0,3.0,62,0.00,,,0.00,meteohub,2013-08-15 04:41:00,
2013-08-15 00:46:00,54.9,42.1,30.25,SSE,158,3.0,4.0,62,0.00,,,0.00,meteohub,2013-08-15 04:46:00,
2013-08-15 00:51:00,54.9,42.4,30.25,SSE,158,1.0,4.0,63,0.00,,,0.00,meteohub,2013-08-15 04:51:00,
2013-08-15 00:56:00,54.9,42.4,30.25,SSE,158,0.0,4.0,63,0.00,,,0.00,meteohub,2013-08-15 04:56:00,
2013-08-15 01:01:00,54.7,42.8,30.25,South,180,2.0,4.0,64,0.00,,,0.00,meteohub,2013-08-15 05:01:00,
2013-08-15 01:06:00,54.5,42.3,30.25,South,180,2.0,3.0,63,0.00,,,0.00,meteohub,2013-08-15 05:06:00,
2013-08-15 01:11:00,54.3,42.4,30.26,SSE,158,3.0,3.0,64,0.00,,,0.00,meteohub,2013-08-15 05:11:00,
2013-08-15 01:16:00,54.3,42.4,30.26,SSE,158,3.0,3.0,64,0.00,,,0.00,meteohub,2013-08-15 05:16:00,
2013-08-15 01:21:00,54.5,43.0,30.25,SSE,158,2.0,3.0,65,-99.99,,,0.00,meteohub,2013-08-15 05:21:00,
2013-08-15 01:26:00,54.5,43.3,30.25,SSE,158,2.0,3.0,66,-99.99,,,0.00,meteohub,2013-08-15 05:26:00,
2013-08-15 01:31:00,54.7,43.5,30.25,South,180,4.0,4.0,66,0.00,,,0.00,meteohub,2013-08-15 05:31:00,
2013-08-15 01:36:00,54.7,43.5,30.25,SSE,158,4.0,4.0,66,0.00,,,0.00,meteohub,2013-08-15 05:36:00,
2013-08-15 01:41:00,54.7,43.5,30.25,ESE,112,3.0,4.0,66,0.00,,,0.00,meteohub,2013-08-15 05:41:00,
2013-08-15 01:46:00,54.7,43.5,30.25,SE,135,3.0,4.0,66,0.00,,,0.00,meteohub,2013-08-15 05:46:00,
2013-08-15 01:51:00,54.5,43.3,30.25,SSE,158,3.0,4.0,66,0.00,,,0.00,meteohub,2013-08-15 05:51:00,
2013-08-15 01:56:00,54.5,43.3,30.25,SSE,158,2.0,4.0,66,0.00,,,0.00,meteohub,2013-08-15 05:56:00,
2013-08-15 02:01:00,54.3,43.2,30.26,SSE,158,2.0,4.0,66,0.00,,,0.00,meteohub,2013-08-15 06:01:00,
2013-08-15 02:06:00,54.3,43.2,30.26,SSE,158,0.0,3.0,66,0.00,,,0.00,meteohub,2013-08-15 06:06:00,
2013-08-15 02:11:00,54.1,43.0,30.26,SSE,158,0.0,3.0,66,0.00,,,0.00,meteohub,2013-08-15 06:11:00,
2013-08-15 02:16:00,54.1,43.0,30.26,SSE,158,1.0,2.0,66,0.00,,,0.00,meteohub,2013-08-15 06:16:00,
2013-08-15 02:21:00,54.1,43.0,30.26,SSE,158,2.0,2.0,66,0.00,,,0.00,meteohub,2013-08-15 06:21:00,
2013-08-15 02:27:00,54.0,42.8,30.26,SSE,158,0.0,2.0,66,0.00,,,0.00,meteohub,2013-08-15 06:27:00,
2013-08-15 02:32:00,54.0,42.8,30.26,SSE,158,0.0,2.0,66,0.00,,,0.00,meteohub,2013-08-15 06:32:00,
2013-08-15 02:36:00,53.8,42.6,30.26,WSW,248,0.0,2.0,66,0.00,,,0.00,meteohub,2013-08-15 06:36:00,
2013-08-15 02:42:00,53.6,43.0,30.26,North,-999,-999.0,0.0,67,0.00,,,0.00,meteohub,2013-08-15 06:42:00,
2013-08-15 02:47:00,53.4,42.8,30.26,WSW,248,0.0,0.0,67,0.00,,,0.00,meteohub,2013-08-15 06:47:00,
2013-08-15 02:51:00,53.4,42.8,30.26,North,-999,-999.0,0.0,67,0.00,,,0.00,meteohub,2013-08-15 06:51:00,
2013-08-15 02:56:00,53.2,42.6,30.23,West,270,0.0,0.0,67,0.00,,,0.00,meteohub,2013-08-15 06:56:00,
2013-08-15 03:02:00,53.2,42.6,30.23,West,270,1.0,2.0,67,0.00,,,0.00,meteohub,2013-08-15 07:02:00,
2013-08-15 03:07:00,53.1,42.4,30.23,WNW,292,2.0,2.0,67,0.00,,,0.00,meteohub,2013-08-15 07:07:00,
2013-08-15 03:12:00,53.1,41.5,30.23,WSW,248,0.0,2.0,65,0.00,,,0.00,meteohub,2013-08-15 07:12:00,
2013-08-15 03:17:00,53.1,41.5,30.23,SE,135,2.0,2.0,65,0.00,,,0.00,meteohub,2013-08-15 07:17:00,
2013-08-15 03:22:00,52.7,41.4,30.23,North,-999,-999.0,2.0,65,0.00,,,0.00,meteohub,2013-08-15 07:22:00,
2013-08-15 03:27:00,52.7,41.4,30.27,WSW,248,0.0,2.0,65,0.00,,,0.00,meteohub,2013-08-15 07:27:00,
2013-08-15 03:32:00,52.7,41.7,30.27,WSW,248,0.0,2.0,66,0.00,,,0.00,meteohub,2013-08-15 07:32:00,
2013-08-15 03:37:00,52.5,41.2,30.27,WSW,248,0.0,1.0,65,0.00,,,0.00,meteohub,2013-08-15 07:37:00,
2013-08-15 03:42:00,52.5,41.2,30.24,WSW,248,0.0,1.0,65,0.00,,,0.00,meteohub,2013-08-15 07:42:00,
2013-08-15 03:47:00,52.5,41.2,30.24,WSW,248,0.0,1.0,65,0.00,,,0.00,meteohub,2013-08-15 07:47:00,
2013-08-15 03:52:00,52.5,41.2,30.24,North,-999,-999.0,0.0,65,0.00,,,0.00,meteohub,2013-08-15 07:52:00,
2013-08-15 03:57:00,52.5,41.2,30.24,WNW,292,0.0,0.0,65,0.00,,,0.00,meteohub,2013-08-15 07:57:00,
2013-08-15 04:02:00,52.3,41.0,30.24,West,270,0.0,0.0,65,0.00,,,0.00,meteohub,2013-08-15 08:02:00,
2013-08-15 04:07:00,52.3,41.0,30.24,West,270,0.0,0.0,65,0.00,,,0.00,meteohub,2013-08-15 08:07:00,
2013-08-15 04:12:00,52.5,41.2,30.27,North,-999,-999.0,0.0,65,0.00,,,0.00,meteohub,2013-08-15 08:12:00,
2013-08-15 04:17:00,52.5,41.2,30.27,SSE,158,2.0,2.0,65,0.00,,,0.00,meteohub,2013-08-15 08:17:00,
2013-08-15 04:22:00,52.5,41.2,30.27,South,180,0.0,2.0,65,0.00,,,0.00,meteohub,2013-08-15 08:22:00,
2013-08-15 04:27:00,52.5,41.5,30.27,SSE,158,0.0,2.0,66,0.00,,,0.00,meteohub,2013-08-15 08:27:00,
2013-08-15 04:32:00,52.2,41.2,30.27,SSE,158,0.0,2.0,66,0.00,,,0.00,meteohub,2013-08-15 08:32:00,
2013-08-15 04:37:00,52.2,41.2,30.27,SSE,158,0.0,0.0,66,0.00,,,0.00,meteohub,2013-08-15 08:37:00,
2013-08-15 04:42:00,52.2,41.2,30.27,SSE,158,0.0,0.0,66,0.00,,,0.00,meteohub,2013-08-15 08:42:00,
2013-08-15 04:47:00,52.2,41.2,30.27,SSE,158,0.0,1.0,66,0.00,,,0.00,meteohub,2013-08-15 08:47:00,
2013-08-15 04:52:00,52.3,41.4,30.27,SSE,158,3.0,3.0,66,0.00,,,0.00,meteohub,2013-08-15 08:52:00,
2013-08-15 04:57:00,52.5,41.5,30.27,SSE,158,2.0,3.0,66,0.00,,,0.00,meteohub,2013-08-15 08:57:00,
2013-08-15 05:02:00,52.5,41.9,30.27,South,180,0.0,3.0,67,0.00,,,0.00,meteohub,2013-08-15 09:02:00,
2013-08-15 05:07:00,52.7,41.7,30.27,SSE,158,0.0,2.0,66,0.00,,,0.00,meteohub,2013-08-15 09:07:00,
2013-08-15 05:12:00,52.9,41.9,30.27,SSE,158,1.0,0.0,66,0.00,,,0.00,meteohub,2013-08-15 09:12:00,
2013-08-15 05:17:00,53.1,42.1,30.27,North,-999,-999.0,1.0,66,0.00,,,0.00,meteohub,2013-08-15 09:17:00,
2013-08-15 05:22:00,53.1,42.1,30.27,SSE,158,0.0,1.0,66,0.00,,,0.00,meteohub,2013-08-15 09:22:00,
2013-08-15 05:27:00,53.1,42.4,30.27,SW,225,0.0,1.0,67,0.00,,,0.00,meteohub,2013-08-15 09:27:00,
2013-08-15 05:32:00,53.1,42.1,30.27,North,-999,-999.0,1.0,66,0.00,,,0.00,meteohub,2013-08-15 09:32:00,
2013-08-15 05:37:00,53.4,42.4,30.26,North,-999,-999.0,0.0,66,0.00,,,0.00,meteohub,2013-08-15 09:37:00,
2013-08-15 05:42:00,53.6,42.1,30.26,SSE,158,4.0,0.0,65,0.00,,,0.00,meteohub,2013-08-15 09:42:00,
2013-08-15 05:47:00,53.6,41.7,30.26,SSE,158,4.0,4.0,64,0.00,,,0.00,meteohub,2013-08-15 09:47:00,
2013-08-15 05:52:00,53.8,41.5,30.26,SSE,158,3.0,4.0,63,0.00,,,0.00,meteohub,2013-08-15 09:52:00,
2013-08-15 05:57:00,53.8,41.0,30.26,SSE,158,2.0,5.0,62,-99.99,,,0.00,meteohub,2013-08-15 09:57:00,
2013-08-15 06:02:00,53.8,41.0,30.26,SSE,158,3.0,5.0,62,-99.99,,,0.00,meteohub,2013-08-15 10:02:00,
2013-08-15 06:07:00,53.8,40.6,30.26,SSE,158,4.0,5.0,61,-99.99,,,0.00,meteohub,2013-08-15 10:07:00,
2013-08-15 06:12:00,53.8,40.3,30.26,SSE,158,3.0,4.0,60,-99.99,,,0.00,meteohub,2013-08-15 10:12:00,
2013-08-15 06:17:00,53.6,39.6,30.26,SSE,158,4.0,4.0,59,-99.99,,,0.00,meteohub,2013-08-15 10:17:00,
2013-08-15 06:22:00,53.6,39.6,30.26,SSE,158,3.0,4.0,59,-99.99,,,0.00,meteohub,2013-08-15 10:22:00,
2013-08-15 06:27:00,53.6,39.6,30.26,SSE,158,3.0,4.0,59,-99.99,,,0.00,meteohub,2013-08-15 10:27:00,
2013-08-15 06:32:00,53.6,39.6,30.26,SSE,158,3.0,3.0,59,-99.99,,,0.00,meteohub,2013-08-15 10:32:00,
2013-08-15 06:37:00,53.4,39.6,30.26,SSE,158,3.0,4.0,59,-99.99,,,0.00,meteohub,2013-08-15 10:37:00,
2013-08-15 06:42:00,53.4,39.6,30.26,SSE,158,4.0,4.0,59,-99.99,,,0.00,meteohub,2013-08-15 10:42:00,
2013-08-15 06:47:00,53.2,39.4,30.26,SSE,158,3.0,4.0,59,-99.99,,,0.00,meteohub,2013-08-15 10:47:00,
2013-08-15 06:52:00,53.1,39.2,30.27,SSE,158,3.0,4.0,59,-99.99,,,0.00,meteohub,2013-08-15 10:52:00,
2013-08-15 06:57:00,52.9,39.0,30.27,SSE,158,3.0,4.0,59,-99.99,,,0.00,meteohub,2013-08-15 10:57:00,
2013-08-15 07:02:00,52.9,39.0,30.27,SSE,158,4.0,4.0,59,-99.99,,,0.00,meteohub,2013-08-15 11:02:00,
2013-08-15 07:07:00,52.9,39.4,30.27,SSE,158,3.0,4.0,60,-99.99,,,0.00,meteohub,2013-08-15 11:07:00,
2013-08-15 07:12:00,52.9,39.4,30.27,SE,135,3.0,4.0,60,-99.99,,,0.00,meteohub,2013-08-15 11:12:00,
2013-08-15 07:17:00,52.9,39.4,30.27,SSE,158,3.0,4.0,60,-99.99,,,0.00,meteohub,2013-08-15 11:17:00,
2013-08-15 07:22:00,53.1,39.6,30.27,North,-999,-999.0,3.0,60,-99.99,,,0.00,meteohub,2013-08-15 11:22:00,
2013-08-15 07:27:00,53.1,39.6,30.27,North,-999,-999.0,3.0,60,-99.99,,,0.00,meteohub,2013-08-15 11:27:00,
2013-08-15 07:32:00,53.2,39.7,30.26,SSE,158,5.0,-999.0,60,-99.99,,,0.00,meteohub,2013-08-15 11:32:00,
2013-08-15 07:37:00,53.6,40.1,30.26,North,-999,-999.0,5.0,60,-99.99,,,0.00,meteohub,2013-08-15 11:37:00,
2013-08-15 07:42:00,53.8,39.7,30.26,SSE,158,6.0,6.0,59,-99.99,,,0.00,meteohub,2013-08-15 11:42:00,
2013-08-15 07:47:00,53.8,39.7,30.26,North,-999,-999.0,6.0,59,-99.99,,,0.00,meteohub,2013-08-15 11:47:00,
2013-08-15 07:52:00,54.0,39.9,30.26,North,-999,-999.0,6.0,59,-99.99,,,0.00,meteohub,2013-08-15 11:52:00,
2013-08-15 07:57:00,54.1,40.1,30.29,North,-999,-999.0,-999.0,59,-99.99,,,0.00,meteohub,2013-08-15 11:57:00,
2013-08-15 08:02:00,54.3,40.3,30.29,North,-999,-999.0,-999.0,59,-99.99,,,0.00,meteohub,2013-08-15 12:02:00,
2013-08-15 08:07:00,54.3,40.3,30.29,North,-999,-999.0,-999.0,59,-99.99,,,0.00,meteohub,2013-08-15 12:07:00,
2013-08-15 08:12:00,54.1,40.6,30.29,SE,135,6.0,8.0,60,-99.99,,,0.00,meteohub,2013-08-15 12:12:00,
2013-08-15 08:17:00,54.1,40.6,30.29,North,-999,-999.0,8.0,60,-99.99,,,0.00,meteohub,2013-08-15 12:17:00,
2013-08-15 08:22:00,54.0,40.5,30.29,SSE,158,5.0,8.0,60,-99.99,,,0.00,meteohub,2013-08-15 12:22:00,
2013-08-15 08:27:00,53.8,40.3,30.29,North,-999,-999.0,6.0,60,-99.99,,,0.00,meteohub,2013-08-15 12:27:00,
2013-08-15 08:32:00,53.6,41.0,30.30,North,-999,-999.0,5.0,62,-99.99,,,0.00,meteohub,2013-08-15 12:32:00,
2013-08-15 08:37:00,53.6,41.4,30.30,North,-999,-999.0,-999.0,63,-99.99,,,0.00,meteohub,2013-08-15 12:37:00,
2013-08-15 08:42:00,53.6,41.7,30.30,North,-999,-999.0,-999.0,64,-99.99,,,0.00,meteohub,2013-08-15 12:42:00,
2013-08-15 08:47:00,53.8,42.3,30.29,North,-999,-999.0,-999.0,65,-99.99,,,0.00,meteohub,2013-08-15 12:47:00,
2013-08-15 08:52:00,53.8,42.3,30.29,North,-999,-999.0,-999.0,65,-99.99,,,0.00,meteohub,2013-08-15 12:52:00,
2013-08-15 08:57:00,53.8,42.6,30.29,North,-999,-999.0,-999.0,66,-99.99,,,0.00,meteohub,2013-08-15 12:57:00,
2013-08-15 09:02:00,54.0,42.8,30.29,North,-999,-999.0,-999.0,66,-99.99,,,0.00,meteohub,2013-08-15 13:02:00,
2013-08-15 09:07:00,54.0,42.8,30.29,North,-999,-999.0,-999.0,66,-99.99,,,0.00,meteohub,2013-08-15 13:07:00,
2013-08-15 09:12:00,54.0,42.8,30.29,North,-999,-999.0,-999.0,66,-99.99,,,0.00,meteohub,2013-08-15 13:12:00,
2013-08-15 09:17:00,54.0,42.8,30.29,North,-999,-999.0,-999.0,66,-99.99,,,0.00,meteohub,2013-08-15 13:17:00,
2013-08-15 09:22:00,54.0,42.8,30.29,North,-999,-999.0,-999.0,66,-99.99,,,0.00,meteohub,2013-08-15 13:22:00,
2013-08-15 09:27:00,54.0,42.8,30.32,North,-999,-999.0,-999.0,66,-99.99,,,0.00,meteohub,2013-08-15 13:27:00,
2013-08-15 09:32:00,54.1,43.5,30.32,North,-999,-999.0,-999.0,67,-99.99,,,0.00,meteohub,2013-08-15 13:32:00,
2013-08-15 09:37:00,54.1,43.5,30.32,North,-999,-999.0,-999.0,67,-99.99,,,0.00,meteohub,2013-08-15 13:37:00,
2013-08-15 09:42:00,54.0,42.8,30.32,North,-999,-999.0,-999.0,66,-99.99,,,0.00,meteohub,2013-08-15 13:42:00,
2013-08-15 09:47:00,54.0,42.8,30.32,North,-999,-999.0,-999.0,66,-99.99,,,0.00,meteohub,2013-08-15 13:47:00,
2013-08-15 09:53:00,54.0,43.3,30.32,North,-999,-999.0,-999.0,67,-99.99,,,0.00,meteohub,2013-08-15 13:53:00,
2013-08-15 09:58:00,54.0,43.3,30.32,North,-999,-999.0,-999.0,67,-99.99,,,0.00,meteohub,2013-08-15 13:58:00,
2013-08-15 10:03:00,54.0,42.8,30.32,North,-999,-999.0,-999.0,66,-99.99,,,0.00,meteohub,2013-08-15 14:03:00,
2013-08-15 10:08:00,54.1,43.0,30.32,North,-999,-999.0,-999.0,66,-99.99,,,0.00,meteohub,2013-08-15 14:08:00,
2013-08-15 10:13:00,54.3,43.7,30.32,North,-999,-999.0,-999.0,67,-99.99,,,0.00,meteohub,2013-08-15 14:13:00,
2013-08-15 10:18:00,54.3,43.2,30.32,North,-999,-999.0,-999.0,66,-99.99,,,0.00,meteohub,2013-08-15 14:18:00,
2013-08-15 10:23:00,54.5,43.3,30.32,North,-999,-999.0,-999.0,66,0.00,,,0.00,meteohub,2013-08-15 14:23:00,
2013-08-15 10:28:00,54.7,43.5,30.32,North,-999,-999.0,-999.0,66,0.00,,,0.00,meteohub,2013-08-15 14:28:00,
2013-08-15 10:33:00,54.7,43.2,30.32,North,-999,-999.0,-999.0,65,0.00,,,0.00,meteohub,2013-08-15 14:33:00,
2013-08-15 10:38:00,54.7,43.2,30.32,North,-999,-999.0,-999.0,65,0.00,,,0.00,meteohub,2013-08-15 14:38:00,
2013-08-15 10:43:00,54.9,43.3,30.32,SSE,158,6.0,-999.0,65,0.00,,,0.00,meteohub,2013-08-15 14:43:00,
2013-08-15 10:48:00,54.9,43.0,30.32,SSE,158,5.0,6.0,64,0.00,,,0.00,meteohub,2013-08-15 14:48:00,
2013-08-15 10:54:00,54.9,43.0,30.32,SSE,158,4.0,6.0,64,0.00,,,0.00,meteohub,2013-08-15 14:54:00,
2013-08-15 10:59:00,54.9,42.4,30.32,SSE,158,6.0,6.0,63,0.00,,,0.00,meteohub,2013-08-15 14:59:00,
2013-08-15 11:04:00,54.9,42.4,30.32,North,-999,-999.0,6.0,63,0.00,,,0.00,meteohub,2013-08-15 15:04:00,
2013-08-15 11:09:00,54.9,42.1,30.32,ESE,112,6.0,6.0,62,0.00,,,0.00,meteohub,2013-08-15 15:09:00,
2013-08-15 11:14:00,55.0,42.3,30.32,North,-999,-999.0,6.0,62,0.00,,,0.00,meteohub,2013-08-15 15:14:00,
2013-08-15 11:19:00,55.2,42.4,30.32,North,-999,-999.0,6.0,62,0.00,,,0.00,meteohub,2013-08-15 15:19:00,
2013-08-15 11:24:00,55.2,42.4,30.32,North,-999,-999.0,6.0,62,0.00,,,0.00,meteohub,2013-08-15 15:24:00,
2013-08-15 11:29:00,55.2,42.4,30.32,North,-999,-999.0,-999.0,62,0.00,,,0.00,meteohub,2013-08-15 15:29:00,
2013-08-15 11:34:00,55.2,42.1,30.32,SE,135,5.0,-999.0,61,0.00,,,0.00,meteohub,2013-08-15 15:34:00,
2013-08-15 11:39:00,55.0,41.9,30.32,SSE,158,9.0,9.0,61,0.00,,,0.00,meteohub,2013-08-15 15:39:00,
2013-08-15 11:44:00,55.2,42.1,30.32,North,-999,-999.0,5.0,61,0.00,,,0.00,meteohub,2013-08-15 15:44:00,
2013-08-15 11:49:00,55.2,42.1,30.32,North,-999,-999.0,9.0,61,0.00,,,0.00,meteohub,2013-08-15 15:49:00,
2013-08-15 11:54:00,55.6,42.4,30.31,North,-999,-999.0,9.0,61,-99.99,,,0.00,meteohub,2013-08-15 15:54:00,
2013-08-15 11:59:00,55.9,42.3,30.31,North,-999,-999.0,-999.0,60,-99.99,,,0.00,meteohub,2013-08-15 15:59:00,
2013-08-15 12:04:00,56.3,42.6,30.31,North,-999,-999.0,-999.0,60,-99.99,,,0.00,meteohub,2013-08-15 16:04:00,
2013-08-15 12:09:00,56.3,42.3,30.31,North,-999,-999.0,-999.0,59,-99.99,,,0.00,meteohub,2013-08-15 16:09:00,
2013-08-15 12:14:00,56.3,41.7,30.31,SSE,158,6.0,-999.0,58,-99.99,,,0.00,meteohub,2013-08-15 16:14:00,
2013-08-15 12:19:00,56.5,41.9,30.31,ESE,112,6.0,6.0,58,-99.99,,,0.00,meteohub,2013-08-15 16:19:00,
2013-08-15 12:24:00,56.8,42.3,30.30,North,-999,-999.0,6.0,58,-99.99,,,0.00,meteohub,2013-08-15 16:24:00,
2013-08-15 12:29:00,57.0,41.9,30.27,North,-999,-999.0,6.0,57,-99.99,,,0.00,meteohub,2013-08-15 16:29:00,
2013-08-15 12:34:00,57.0,41.5,30.27,SSE,158,8.0,8.0,56,-99.99,,,0.00,meteohub,2013-08-15 16:34:00,
2013-08-15 12:39:00,56.8,40.8,30.27,SSE,158,3.0,-999.0,55,-99.99,,,0.00,meteohub,2013-08-15 16:39:00,
2013-08-15 12:44:00,56.8,40.8,30.27,SSE,158,5.0,8.0,55,-99.99,,,0.00,meteohub,2013-08-15 16:44:00,
2013-08-15 12:49:00,56.8,40.8,30.27,ESE,112,6.0,9.0,55,-99.99,,,0.00,meteohub,2013-08-15 16:49:00,
2013-08-15 12:54:00,56.5,41.0,30.27,SSE,158,6.0,9.0,56,-99.99,,,0.00,meteohub,2013-08-15 16:54:00,
2013-08-15 12:59:00,56.5,41.0,30.27,ESE,112,6.0,9.0,56,0.00,,,0.00,meteohub,2013-08-15 16:59:00,
2013-08-15 13:05:00,56.7,41.2,30.27,SSE,158,5.0,9.0,56,0.00,,,0.00,meteohub,2013-08-15 17:05:00,
2013-08-15 13:10:00,56.8,41.7,30.27,North,-999,-999.0,8.0,57,0.00,,,0.00,meteohub,2013-08-15 17:10:00,
2013-08-15 13:15:00,57.0,41.5,30.30,North,-999,-999.0,8.0,56,0.00,,,0.00,meteohub,2013-08-15 17:15:00,
2013-08-15 13:20:00,57.2,41.2,30.30,SE,135,6.0,6.0,55,0.00,,,0.00,meteohub,2013-08-15 17:20:00,
2013-08-15 13:25:00,57.6,41.0,30.30,North,-999,-999.0,6.0,54,0.00,,,0.00,meteohub,2013-08-15 17:25:00,
2013-08-15 13:30:00,58.1,42.1,30.26,North,-999,-999.0,6.0,55,0.00,,,0.00,meteohub,2013-08-15 17:30:00,
2013-08-15 13:35:00,58.8,41.7,30.25,North,-999,-999.0,6.0,53,0.00,,,0.00,meteohub,2013-08-15 17:35:00,
2013-08-15 13:40:00,59.5,41.4,30.25,North,-999,-999.0,-999.0,51,0.00,,,0.00,meteohub,2013-08-15 17:40:00,
2013-08-15 13:45:00,60.4,41.2,30.24,North,-999,-999.0,-999.0,49,0.00,,,0.00,meteohub,2013-08-15 17:45:00,
2013-08-15 13:48:00,61.3,41.5,30.23,North,-999,-999.0,-999.0,48,0.00,,,0.00,meteohub,2013-08-15 17:48:00,
2013-08-15 13:52:00,61.9,41.5,30.23,North,-999,-999.0,-999.0,47,0.00,,,0.00,meteohub,2013-08-15 17:52:00,
2013-08-15 13:57:00,63.1,42.6,30.22,North,-999,-999.0,-999.0,47,0.00,,,0.00,meteohub,2013-08-15 17:57:00,
2013-08-15 14:02:00,64.2,42.4,30.21,SSE,158,6.0,-999.0,45,0.00,,,0.00,meteohub,2013-08-15 18:02:00,
2013-08-15 14:07:00,63.5,41.2,30.22,North,-999,-999.0,6.0,44,0.00,,,0.00,meteohub,2013-08-15 18:07:00,
2013-08-15 14:12:00,63.5,41.2,30.22,SSE,158,6.0,6.0,44,0.00,,,0.00,meteohub,2013-08-15 18:12:00,
2013-08-15 14:17:00,64.2,41.4,30.21,North,-999,-999.0,6.0,43,0.00,,,0.00,meteohub,2013-08-15 18:17:00,
2013-08-15 14:18:00,64.4,41.4,30.21,North,-999,-999.0,6.0,43,0.00,,,0.00,meteohub,2013-08-15 18:18:00,
2013-08-15 14:22:00,64.2,40.6,30.21,SSE,158,6.0,6.0,42,0.00,,,0.00,meteohub,2013-08-15 18:22:00,
2013-08-15 14:27:00,64.6,41.0,30.21,ESE,112,8.0,8.0,42,-99.99,,,0.00,meteohub,2013-08-15 18:27:00,
2013-08-15 14:32:00,65.8,42.1,30.20,SSE,158,8.0,8.0,42,-99.99,,,0.00,meteohub,2013-08-15 18:32:00,
2013-08-15 14:37:00,66.2,41.2,30.20,SE,135,4.0,10.0,40,0.00,,,0.00,meteohub,2013-08-15 18:37:00,
2013-08-15 14:42:00,66.0,41.7,30.20,SSE,158,6.0,10.0,41,0.00,,,0.00,meteohub,2013-08-15 18:42:00,
2013-08-15 14:47:00,65.1,40.3,30.20,SSE,158,10.0,10.0,40,0.00,,,0.00,meteohub,2013-08-15 18:47:00,
2013-08-15 14:52:00,64.8,39.9,30.21,North,-999,-999.0,10.0,40,0.00,,,0.00,meteohub,2013-08-15 18:52:00,
2013-08-15 14:57:00,64.2,40.1,30.21,North,-999,-999.0,10.0,41,0.00,,,0.00,meteohub,2013-08-15 18:57:00,
2013-08-15 15:02:00,63.7,39.6,30.22,North,-999,-999.0,-999.0,41,0.00,,,0.00,meteohub,2013-08-15 19:02:00,
2013-08-15 15:07:00,63.5,40.1,30.22,North,-999,-999.0,-999.0,42,0.00,,,0.00,meteohub,2013-08-15 19:07:00,
2013-08-15 15:12:00,63.5,40.6,30.22,North,-999,-999.0,-999.0,43,0.00,,,0.00,meteohub,2013-08-15 19:12:00,
2013-08-15 15:17:00,63.1,40.3,30.22,North,-999,-999.0,-999.0,43,0.00,,,0.00,meteohub,2013-08-15 19:17:00,
2013-08-15 15:22:00,63.1,40.8,30.22,SE,135,7.0,-999.0,44,0.00,,,0.00,meteohub,2013-08-15 19:22:00,
2013-08-15 15:27:00,63.0,40.8,30.22,North,-999,-999.0,7.0,44,0.00,,,0.00,meteohub,2013-08-15 19:27:00,
2013-08-15 15:32:00,63.0,40.8,30.22,North,-999,-999.0,7.0,44,0.00,,,0.00,meteohub,2013-08-15 19:32:00,
2013-08-15 15:37:00,63.1,40.8,30.22,SSE,158,6.0,-999.0,44,0.00,,,0.00,meteohub,2013-08-15 19:37:00,
2013-08-15 15:42:00,63.0,40.8,30.19,North,-999,-999.0,6.0,44,0.00,,,0.00,meteohub,2013-08-15 19:42:00,
2013-08-15 15:47:00,63.0,40.8,30.19,North,-999,-999.0,6.0,44,0.00,,,0.00,meteohub,2013-08-15 19:47:00,
2013-08-15 15:52:00,62.4,40.3,30.19,North,-999,-999.0,-999.0,44,0.00,,,0.00,meteohub,2013-08-15 19:52:00,
2013-08-15 15:58:00,63.0,41.4,30.19,North,-999,-999.0,-999.0,45,0.00,,,0.00,meteohub,2013-08-15 19:58:00,
2013-08-15 16:03:00,63.3,41.7,30.19,North,-999,-999.0,-999.0,45,0.00,,,0.00,meteohub,2013-08-15 20:03:00,
2013-08-15 16:08:00,63.1,41.5,30.19,North,-999,-999.0,-999.0,45,0.00,,,0.00,meteohub,2013-08-15 20:08:00,
2013-08-15 16:13:00,63.0,41.4,30.19,North,-999,-999.0,-999.0,45,0.00,,,0.00,meteohub,2013-08-15 20:13:00,
2013-08-15 16:18:00,62.6,41.0,30.19,North,-999,-999.0,-999.0,45,0.00,,,0.00,meteohub,2013-08-15 20:18:00,
2013-08-15 16:24:00,62.6,41.0,30.19,North,-999,-999.0,-999.0,45,0.00,,,0.00,meteohub,2013-08-15 20:24:00,
2013-08-15 16:29:00,61.7,40.8,30.20,North,-999,-999.0,-999.0,46,0.00,,,0.00,meteohub,2013-08-15 20:29:00,
2013-08-15 16:34:00,61.3,40.5,30.20,North,-999,-999.0,-999.0,46,0.00,,,0.00,meteohub,2013-08-15 20:34:00,
2013-08-15 16:39:00,61.0,40.6,30.20,North,-999,-999.0,-999.0,47,0.00,,,0.00,meteohub,2013-08-15 20:39:00,
2013-08-15 16:45:00,60.8,41.0,30.20,North,-999,-999.0,-999.0,48,0.00,,,0.00,meteohub,2013-08-15 20:45:00,
2013-08-15 16:50:00,60.8,41.5,30.20,North,-999,-999.0,-999.0,49,0.00,,,0.00,meteohub,2013-08-15 20:50:00,
2013-08-15 16:55:00,60.8,41.5,30.20,North,-999,-999.0,-999.0,49,0.00,,,0.00,meteohub,2013-08-15 20:55:00,
2013-08-15 17:01:00,60.6,41.9,30.21,North,-999,-999.0,-999.0,50,0.00,,,0.00,meteohub,2013-08-15 21:01:00,
2013-08-15 17:06:00,60.4,42.3,30.21,North,-999,-999.0,-999.0,51,0.00,,,0.00,meteohub,2013-08-15 21:06:00,
2013-08-15 17:11:00,60.4,42.8,30.24,North,-999,-999.0,-999.0,52,0.00,,,0.00,meteohub,2013-08-15 21:11:00,
2013-08-15 17:16:00,60.4,42.8,30.24,North,-999,-999.0,-999.0,52,0.00,,,0.00,meteohub,2013-08-15 21:16:00,
2013-08-15 17:22:00,60.4,43.3,30.24,North,-999,-999.0,-999.0,53,0.00,,,0.00,meteohub,2013-08-15 21:22:00,
2013-08-15 17:27:00,60.4,43.3,30.24,SSE,158,6.0,-999.0,53,0.00,,,0.00,meteohub,2013-08-15 21:27:00,
2013-08-15 17:32:00,60.1,43.0,30.25,North,-999,-999.0,6.0,53,0.00,,,0.00,meteohub,2013-08-15 21:32:00,
2013-08-15 17:37:00,59.7,43.0,30.25,SE,135,4.0,6.0,54,0.00,,,0.00,meteohub,2013-08-15 21:37:00,
2013-08-15 17:42:00,59.7,43.0,30.21,SSE,158,5.0,6.0,54,0.00,,,0.00,meteohub,2013-08-15 21:42:00,
2013-08-15 18:09:00,59.0,44.8,30.22,SE,135,5.0,6.0,59,0.00,,,0.00,meteohub,2013-08-15 22:09:00,
2013-08-15 18:14:00,59.2,45.0,30.22,SSE,158,6.0,6.0,59,0.00,,,0.00,meteohub,2013-08-15 22:14:00,
2013-08-15 18:19:00,59.2,45.0,30.22,SSE,158,6.0,6.0,59,0.00,,,0.00,meteohub,2013-08-15 22:19:00,
2013-08-15 18:24:00,59.7,45.9,30.21,SSE,158,5.0,8.0,60,0.00,,,0.00,meteohub,2013-08-15 22:24:00,
2013-08-15 18:29:00,59.7,45.3,30.25,ESE,112,4.0,8.0,59,0.00,,,0.00,meteohub,2013-08-15 22:29:00,
2013-08-15 18:34:00,59.4,45.5,30.25,SSE,158,5.0,8.0,60,0.00,,,0.00,meteohub,2013-08-15 22:34:00,
2013-08-15 18:39:00,59.0,45.1,30.25,SSE,158,4.0,8.0,60,0.00,,,0.00,meteohub,2013-08-15 22:39:00,
2013-08-15 18:44:00,59.0,45.5,30.22,SSE,158,4.0,7.0,61,0.00,,,0.00,meteohub,2013-08-15 22:44:00,
2013-08-15 18:49:00,58.8,45.5,30.22,SSE,158,4.0,7.0,61,0.00,,,0.00,meteohub,2013-08-15 22:49:00,
2013-08-15 18:54:00,58.8,45.9,30.22,SSE,158,4.0,6.0,62,0.00,,,0.00,meteohub,2013-08-15 22:54:00,
2013-08-15 18:59:00,58.6,46.0,30.22,ESE,112,4.0,6.0,63,0.00,,,0.00,meteohub,2013-08-15 22:59:00,
2013-08-15 19:04:00,58.5,45.9,30.22,SSE,158,6.0,6.0,63,0.00,,,0.00,meteohub,2013-08-15 23:04:00,
2013-08-15 19:09:00,58.3,46.2,30.22,SSE,158,8.0,8.0,64,0.00,,,0.00,meteohub,2013-08-15 23:09:00,
2013-08-15 19:14:00,58.1,46.4,30.26,SE,135,4.0,7.0,65,0.00,,,0.00,meteohub,2013-08-15 23:14:00,
2013-08-15 19:19:00,57.9,46.2,30.26,SSE,158,4.0,8.0,65,0.00,,,0.00,meteohub,2013-08-15 23:19:00,
2013-08-15 19:24:00,57.6,46.2,30.26,SSE,158,4.0,8.0,66,0.00,,,0.00,meteohub,2013-08-15 23:24:00,
2013-08-15 19:30:00,57.6,46.2,30.26,SSE,158,4.0,7.0,66,0.00,,,0.00,meteohub,2013-08-15 23:30:00,
2013-08-15 19:35:00,57.6,46.8,30.26,SSE,158,4.0,7.0,67,0.00,,,0.00,meteohub,2013-08-15 23:35:00,
2013-08-15 19:40:00,57.4,46.9,30.27,SE,135,5.0,6.0,68,0.00,,,0.00,meteohub,2013-08-15 23:40:00,
2013-08-15 19:45:00,57.2,46.8,30.23,SSE,158,4.0,6.0,68,0.00,,,0.00,meteohub,2013-08-15 23:45:00,
2013-08-15 19:50:00,57.0,46.9,30.23,SE,135,4.0,6.0,69,0.00,,,0.00,meteohub,2013-08-15 23:50:00,
2013-08-15 19:55:00,57.0,46.9,30.23,SSE,158,4.0,6.0,69,0.00,,,0.00,meteohub,2013-08-15 23:55:00,
2013-08-15 20:00:00,56.8,46.8,30.27,ESE,112,3.0,6.0,69,0.00,,,0.00,meteohub,2013-08-16 00:00:00,
2013-08-15 20:05:00,56.8,46.8,30.27,SSE,158,4.0,6.0,69,0.00,,,0.00,meteohub,2013-08-16 00:05:00,
2013-08-15 20:10:00,56.8,47.1,30.27,SSE,158,4.0,5.0,70,0.00,,,0.00,meteohub,2013-08-16 00:10:00,
2013-08-15 20:15:00,56.8,47.1,30.27,SSE,158,6.0,6.0,70,0.00,,,0.00,meteohub,2013-08-16 00:15:00,
2013-08-15 20:20:00,56.7,46.9,30.27,SSE,158,5.0,6.0,70,0.00,,,0.00,meteohub,2013-08-16 00:20:00,
2013-08-15 20:25:00,56.7,46.9,30.27,SE,135,4.0,6.0,70,0.00,,,0.00,meteohub,2013-08-16 00:25:00,
2013-08-15 20:30:00,56.7,46.9,30.27,SE,135,2.0,6.0,70,0.00,,,0.00,meteohub,2013-08-16 00:30:00,
2013-08-15 20:35:00,56.7,46.9,30.27,SSE,158,2.0,6.0,70,0.00,,,0.00,meteohub,2013-08-16 00:35:00,
2013-08-15 20:40:00,56.7,46.9,30.27,ESE,112,2.0,4.0,70,0.00,,,0.00,meteohub,2013-08-16 00:40:00,
2013-08-15 20:45:00,56.5,46.8,30.27,SSE,158,3.0,4.0,70,0.00,,,0.00,meteohub,2013-08-16 00:45:00,
2013-08-15 20:51:00,56.5,46.8,30.27,SSE,158,2.0,4.0,70,0.00,,,0.00,meteohub,2013-08-16 00:51:00,
2013-08-15 20:56:00,56.5,46.8,30.27,SSE,158,2.0,3.0,70,0.00,,,0.00,meteohub,2013-08-16 00:56:00,
2013-08-15 21:01:00,56.5,46.8,30.27,SE,135,3.0,3.0,70,0.00,,,0.00,meteohub,2013-08-16 01:01:00,
2013-08-15 21:06:00,56.5,46.8,30.27,SSE,158,3.0,4.0,70,0.00,,,0.00,meteohub,2013-08-16 01:06:00,
2013-08-15 21:11:00,56.3,46.2,30.27,ESE,112,3.0,4.0,69,-99.99,,,0.00,meteohub,2013-08-16 01:11:00,
2013-08-15 21:16:00,56.1,46.0,30.27,SSE,158,2.0,3.0,69,-99.99,,,0.00,meteohub,2013-08-16 01:16:00,
2013-08-15 21:21:00,55.9,45.9,30.28,SSE,158,2.0,3.0,69,-99.99,,,0.00,meteohub,2013-08-16 01:21:00,
2013-08-15 21:26:00,55.6,45.5,30.28,SSE,158,1.0,3.0,69,-99.99,,,0.00,meteohub,2013-08-16 01:26:00,
2013-08-15 21:31:00,55.4,45.0,30.28,SSE,158,2.0,3.0,68,0.00,,,0.00,meteohub,2013-08-16 01:31:00,
2013-08-15 21:37:00,55.2,45.3,30.28,SSE,158,2.0,3.0,69,0.00,,,0.00,meteohub,2013-08-16 01:37:00,
2013-08-15 21:42:00,55.0,45.1,30.28,SSE,158,2.0,3.0,69,0.00,,,0.00,meteohub,2013-08-16 01:42:00,
2013-08-15 21:47:00,54.9,45.0,30.29,SSE,158,4.0,4.0,69,0.00,,,0.00,meteohub,2013-08-16 01:47:00,
2013-08-15 21:52:00,54.7,45.1,30.29,SSE,158,3.0,4.0,70,0.00,,,0.00,meteohub,2013-08-16 01:52:00,
2013-08-15 21:57:00,54.7,45.1,30.29,SSE,158,3.0,4.0,70,0.00,,,0.00,meteohub,2013-08-16 01:57:00,
2013-08-15 22:02:00,54.5,45.0,30.29,SSE,158,3.0,4.0,70,0.00,,,0.00,meteohub,2013-08-16 02:02:00,
2013-08-15 22:07:00,54.5,45.3,30.29,SSE,158,3.0,4.0,71,0.00,,,0.00,meteohub,2013-08-16 02:07:00,
2013-08-15 22:12:00,54.5,45.3,30.29,SSE,158,2.0,4.0,71,0.00,,,0.00,meteohub,2013-08-16 02:12:00,
2013-08-15 22:17:00,54.3,45.1,30.29,SSE,158,0.0,4.0,71,0.00,,,0.00,meteohub,2013-08-16 02:17:00,
2013-08-15 22:22:00,54.3,45.1,30.29,SSE,158,0.0,3.0,71,0.00,,,0.00,meteohub,2013-08-16 02:22:00,
2013-08-15 22:27:00,54.1,45.0,30.29,SSE,158,2.0,3.0,71,0.00,,,0.00,meteohub,2013-08-16 02:27:00,
2013-08-15 22:32:00,54.0,44.8,30.29,SSE,158,1.0,2.0,71,0.00,,,0.00,meteohub,2013-08-16 02:32:00,
2013-08-15 22:37:00,54.0,44.8,30.29,SSE,158,3.0,3.0,71,0.00,,,0.00,meteohub,2013-08-16 02:37:00,
2013-08-15 22:42:00,54.0,44.8,30.32,SSE,158,2.0,3.0,71,0.00,,,0.00,meteohub,2013-08-16 02:42:00,
2013-08-15 22:47:00,54.0,44.8,30.32,SSE,158,6.0,6.0,71,0.00,,,0.00,meteohub,2013-08-16 02:47:00,
2013-08-15 22:52:00,54.0,44.8,30.32,SSE,158,3.0,6.0,71,0.00,,,0.00,meteohub,2013-08-16 02:52:00,
2013-08-15 22:57:00,53.8,44.2,30.29,SSE,158,3.0,6.0,70,0.00,,,0.00,meteohub,2013-08-16 02:57:00,
2013-08-15 23:02:00,53.8,44.2,30.29,SSE,158,3.0,6.0,70,0.00,,,0.00,meteohub,2013-08-16 03:02:00,
2013-08-15 23:07:00,53.8,44.2,30.29,SSE,158,2.0,4.0,70,0.00,,,0.00,meteohub,2013-08-16 03:07:00,
2013-08-15 23:12:00,53.8,44.2,30.29,SSE,158,3.0,4.0,70,0.00,,,0.00,meteohub,2013-08-16 03:12:00,
2013-08-15 23:17:00,53.8,43.9,30.29,SE,135,4.0,5.0,69,0.00,,,0.00,meteohub,2013-08-16 03:17:00,
2013-08-15 23:22:00,53.8,43.9,30.29,SSE,158,4.0,5.0,69,0.00,,,0.00,meteohub,2013-08-16 03:22:00,
2013-08-15 23:27:00,53.8,43.9,30.29,SSE,158,4.0,4.0,69,0.00,,,0.00,meteohub,2013-08-16 03:27:00,
2013-08-15 23:32:00,53.6,43.7,30.30,North,-999,-999.0,4.0,69,0.00,,,0.00,meteohub,2013-08-16 03:32:00,
2013-08-15 23:37:00,53.6,43.7,30.30,SE,135,4.0,4.0,69,0.00,,,0.00,meteohub,2013-08-16 03:37:00,
2013-08-15 23:42:00,53.8,44.2,30.29,SSE,158,5.0,5.0,70,0.00,,,0.00,meteohub,2013-08-16 03:42:00,
2013-08-15 23:47:00,53.8,44.2,30.29,SSE,158,6.0,6.0,70,0.00,,,0.00,meteohub,2013-08-16 03:47:00,
2013-08-15 23:52:00,54.0,44.4,30.29,SSE,158,4.0,6.0,70,0.00,,,0.00,meteohub,2013-08-16 03:52:00,
2013-08-15 23:57:00,54.0,44.4,30.29,SSE,158,4.0,6.0,70,0.00,,,0.00,meteohub,2013-08-16 03:57:00,